sensor_id;sensor_type;location;lat;lon;timestamp;pressure;altitude;pressure_sealevel;temperature;humidity
32747;BME280;19118;50.860;13.662;2023-07-20T00:01:11;96536.13;;;15.78;100.00
32747;BME280;19118;50.860;13.662;2023-07-20T00:06:12;96523.03;;;15.93;100.00
32747;BME280;19118;50.860;13.662;2023-07-20T00:11:12;96520.84;;;16.07;100.00
32747;BME280;19118;50.860;13.662;2023-07-20T00:16:13;96519.97;;;16.01;100.00
32747;BME280;19118;50.860;13.662;2023-07-20T00:21:14;96525.19;;;15.96;100.00
32747;BME280;19118;50.860;13.662;2023-07-20T00:26:15;96525.94;;;16.09;100.00
32747;BME280;19118;50.860;13.662;2023-07-20T00:31:15;96516.31;;;16.08;100.00
32747;BME280;19118;50.860;13.662;2023-07-20T00:36:16;96516.56;;;15.89;100.00
32747;BME280;19118;50.860;13.662;2023-07-20T00:41:16;96530.47;;;15.91;100.00
32747;BME280;19118;50.860;13.662;2023-07-20T00:46:17;96526.84;;;15.97;100.00
32747;BME280;19118;50.860;13.662;2023-07-20T00:51:20;96525.69;;;15.93;100.00
32747;BME280;19118;50.860;13.662;2023-07-20T00:56:22;96521.91;;;15.89;100.00
32747;BME280;19118;50.860;13.662;2023-07-20T01:01:22;96526.19;;;15.90;100.00
32747;BME280;19118;50.860;13.662;2023-07-20T01:06:36;96518.50;;;15.94;100.00
32747;BME280;19118;50.860;13.662;2023-07-20T01:16:45;96519.00;;;15.91;100.00
32747;BME280;19118;50.860;13.662;2023-07-20T01:21:55;96520.78;;;16.02;100.00
32747;BME280;19118;50.860;13.662;2023-07-20T01:32:23;96521.75;;;15.79;100.00
32747;BME280;19118;50.860;13.662;2023-07-20T01:37:27;96527.72;;;15.69;100.00
32747;BME280;19118;50.860;13.662;2023-07-20T01:42:29;96519.56;;;15.48;100.00
32747;BME280;19118;50.860;13.662;2023-07-20T01:47:30;96518.16;;;15.28;100.00
32747;BME280;19118;50.860;13.662;2023-07-20T01:52:30;96519.41;;;15.09;100.00
32747;BME280;19118;50.860;13.662;2023-07-20T01:57:31;96519.81;;;14.89;100.00
32747;BME280;19118;50.860;13.662;2023-07-20T02:02:32;96513.56;;;14.83;100.00
32747;BME280;19118;50.860;13.662;2023-07-20T02:07:33;96514.81;;;14.64;100.00
32747;BME280;19118;50.860;13.662;2023-07-20T02:12:33;96537.97;;;14.52;100.00
32747;BME280;19118;50.860;13.662;2023-07-20T02:17:33;96543.72;;;14.49;100.00
32747;BME280;19118;50.860;13.662;2023-07-20T02:22:34;96544.09;;;14.41;100.00
32747;BME280;19118;50.860;13.662;2023-07-20T02:27:34;96543.03;;;14.42;100.00
32747;BME280;19118;50.860;13.662;2023-07-20T02:32:36;96535.41;;;14.34;100.00
32747;BME280;19118;50.860;13.662;2023-07-20T02:37:37;96540.50;;;14.23;100.00
32747;BME280;19118;50.860;13.662;2023-07-20T02:42:37;96543.03;;;14.18;100.00
32747;BME280;19118;50.860;13.662;2023-07-20T02:47:38;96545.13;;;14.16;100.00
32747;BME280;19118;50.860;13.662;2023-07-20T02:52:44;96546.94;;;14.04;100.00
32747;BME280;19118;50.860;13.662;2023-07-20T02:57:45;96551.59;;;14.09;100.00
32747;BME280;19118;50.860;13.662;2023-07-20T03:02:46;96555.78;;;14.16;100.00
32747;BME280;19118;50.860;13.662;2023-07-20T03:07:49;96551.69;;;14.02;100.00
32747;BME280;19118;50.860;13.662;2023-07-20T03:12:49;96548.34;;;13.95;100.00
32747;BME280;19118;50.860;13.662;2023-07-20T03:17:50;96558.38;;;13.93;100.00
32747;BME280;19118;50.860;13.662;2023-07-20T03:22:52;96570.06;;;13.92;100.00
32747;BME280;19118;50.860;13.662;2023-07-20T03:27:52;96561.19;;;13.98;100.00
32747;BME280;19118;50.860;13.662;2023-07-20T03:32:53;96558.41;;;14.05;100.00
32747;BME280;19118;50.860;13.662;2023-07-20T03:37:53;96553.09;;;14.05;100.00
32747;BME280;19118;50.860;13.662;2023-07-20T03:42:53;96556.34;;;14.18;100.00
32747;BME280;19118;50.860;13.662;2023-07-20T03:47:54;96556.44;;;14.23;100.00
32747;BME280;19118;50.860;13.662;2023-07-20T03:52:54;96557.38;;;14.41;100.00
32747;BME280;19118;50.860;13.662;2023-07-20T03:57:54;96558.44;;;14.63;100.00
32747;BME280;19118;50.860;13.662;2023-07-20T04:02:55;96556.88;;;14.79;100.00
32747;BME280;19118;50.860;13.662;2023-07-20T04:07:55;96555.78;;;15.03;100.00
32747;BME280;19118;50.860;13.662;2023-07-20T04:12:56;96554.28;;;15.36;100.00
32747;BME280;19118;50.860;13.662;2023-07-20T04:17:57;96560.84;;;15.90;100.00
32747;BME280;19118;50.860;13.662;2023-07-20T04:22:57;96559.31;;;16.11;100.00
32747;BME280;19118;50.860;13.662;2023-07-20T04:27:59;96553.97;;;16.28;100.00
32747;BME280;19118;50.860;13.662;2023-07-20T04:32:59;96548.97;;;16.15;100.00
32747;BME280;19118;50.860;13.662;2023-07-20T04:38:00;96558.78;;;16.09;100.00
32747;BME280;19118;50.860;13.662;2023-07-20T04:43:00;96571.34;;;15.80;100.00
32747;BME280;19118;50.860;13.662;2023-07-20T04:48:01;96568.13;;;15.78;100.00
32747;BME280;19118;50.860;13.662;2023-07-20T04:53:02;96564.47;;;15.84;100.00
32747;BME280;19118;50.860;13.662;2023-07-20T04:58:03;96575.91;;;16.13;100.00
32747;BME280;19118;50.860;13.662;2023-07-20T05:03:05;96567.41;;;16.88;100.00
32747;BME280;19118;50.860;13.662;2023-07-20T05:08:06;96568.00;;;16.96;100.00
32747;BME280;19118;50.860;13.662;2023-07-20T05:13:07;96567.06;;;17.29;100.00
32747;BME280;19118;50.860;13.662;2023-07-20T05:18:08;96564.34;;;18.42;100.00
32747;BME280;19118;50.860;13.662;2023-07-20T05:23:09;96579.66;;;18.88;100.00
32747;BME280;19118;50.860;13.662;2023-07-20T05:28:09;96578.72;;;19.25;100.00
32747;BME280;19118;50.860;13.662;2023-07-20T05:33:09;96579.22;;;19.12;100.00
32747;BME280;19118;50.860;13.662;2023-07-20T05:38:10;96579.25;;;19.17;100.00
32747;BME280;19118;50.860;13.662;2023-07-20T05:43:10;96577.19;;;19.44;100.00
32747;BME280;19118;50.860;13.662;2023-07-20T05:48:11;96585.31;;;19.70;100.00
32747;BME280;19118;50.860;13.662;2023-07-20T05:53:13;96584.47;;;19.59;100.00
32747;BME280;19118;50.860;13.662;2023-07-20T05:58:13;96584.91;;;19.31;100.00
32747;BME280;19118;50.860;13.662;2023-07-20T06:03:13;96589.09;;;19.89;100.00
32747;BME280;19118;50.860;13.662;2023-07-20T06:08:14;96600.75;;;19.27;100.00
32747;BME280;19118;50.860;13.662;2023-07-20T06:13:14;96597.03;;;19.38;100.00
32747;BME280;19118;50.860;13.662;2023-07-20T06:18:14;96596.91;;;19.08;100.00
32747;BME280;19118;50.860;13.662;2023-07-20T06:23:15;96604.16;;;20.16;100.00
32747;BME280;19118;50.860;13.662;2023-07-20T06:28:15;96605.34;;;19.42;100.00
32747;BME280;19118;50.860;13.662;2023-07-20T06:33:16;96608.88;;;18.53;100.00
32747;BME280;19118;50.860;13.662;2023-07-20T06:38:16;96621.56;;;17.28;100.00
32747;BME280;19118;50.860;13.662;2023-07-20T06:43:16;96634.28;;;15.53;100.00
32747;BME280;19118;50.860;13.662;2023-07-20T06:48:17;96640.13;;;15.26;100.00
32747;BME280;19118;50.860;13.662;2023-07-20T06:53:17;96661.16;;;15.63;100.00
32747;BME280;19118;50.860;13.662;2023-07-20T06:58:18;96668.25;;;15.46;100.00
32747;BME280;19118;50.860;13.662;2023-07-20T07:03:20;96667.81;;;15.77;100.00
32747;BME280;19118;50.860;13.662;2023-07-20T07:08:21;96667.03;;;15.93;100.00
32747;BME280;19118;50.860;13.662;2023-07-20T07:13:22;96662.47;;;16.39;100.00
32747;BME280;19118;50.860;13.662;2023-07-20T07:18:22;96644.41;;;16.97;100.00
32747;BME280;19118;50.860;13.662;2023-07-20T07:23:25;96632.38;;;17.82;100.00
32747;BME280;19118;50.860;13.662;2023-07-20T07:28:25;96632.44;;;18.51;100.00
32747;BME280;19118;50.860;13.662;2023-07-20T07:33:25;96628.75;;;18.99;100.00
32747;BME280;19118;50.860;13.662;2023-07-20T07:38:26;96640.13;;;18.79;100.00
32747;BME280;19118;50.860;13.662;2023-07-20T07:43:27;96637.97;;;18.71;100.00
32747;BME280;19118;50.860;13.662;2023-07-20T07:48:27;96637.91;;;19.08;100.00
32747;BME280;19118;50.860;13.662;2023-07-20T07:53:27;96641.47;;;18.45;100.00
32747;BME280;19118;50.860;13.662;2023-07-20T07:58:28;96644.22;;;18.55;100.00
32747;BME280;19118;50.860;13.662;2023-07-20T08:03:28;96640.28;;;18.62;100.00
32747;BME280;19118;50.860;13.662;2023-07-20T08:08:28;96634.78;;;19.32;100.00
32747;BME280;19118;50.860;13.662;2023-07-20T08:13:29;96645.25;;;19.33;100.00
32747;BME280;19118;50.860;13.662;2023-07-20T08:18:52;96654.84;;;19.19;100.00
32747;BME280;19118;50.860;13.662;2023-07-20T08:23:52;96675.28;;;19.35;100.00
32747;BME280;19118;50.860;13.662;2023-07-20T08:28:52;96669.03;;;19.62;100.00
32747;BME280;19118;50.860;13.662;2023-07-20T08:33:53;96663.94;;;19.70;100.00
32747;BME280;19118;50.860;13.662;2023-07-20T08:38:53;96668.84;;;19.99;100.00
32747;BME280;19118;50.860;13.662;2023-07-20T08:43:54;96660.00;;;20.09;100.00
32747;BME280;19118;50.860;13.662;2023-07-20T08:48:57;96676.44;;;20.88;100.00
32747;BME280;19118;50.860;13.662;2023-07-20T08:53:58;96668.06;;;20.95;100.00
32747;BME280;19118;50.860;13.662;2023-07-20T08:59:00;96669.38;;;20.01;100.00
32747;BME280;19118;50.860;13.662;2023-07-20T09:04:01;96661.59;;;19.94;100.00
32747;BME280;19118;50.860;13.662;2023-07-20T09:09:02;96665.16;;;20.41;100.00
32747;BME280;19118;50.860;13.662;2023-07-20T09:14:06;96665.69;;;20.58;100.00
32747;BME280;19118;50.860;13.662;2023-07-20T09:19:06;96669.88;;;21.45;98.46
32747;BME280;19118;50.860;13.662;2023-07-20T09:24:07;96671.19;;;21.48;94.31
32747;BME280;19118;50.860;13.662;2023-07-20T09:29:07;96671.34;;;21.77;93.76
32747;BME280;19118;50.860;13.662;2023-07-20T09:34:09;96675.88;;;22.36;87.46
32747;BME280;19118;50.860;13.662;2023-07-20T09:39:10;96675.59;;;21.88;81.64
32747;BME280;19118;50.860;13.662;2023-07-20T09:44:10;96679.88;;;22.38;81.00
32747;BME280;19118;50.860;13.662;2023-07-20T09:49:11;96679.59;;;21.96;78.22
32747;BME280;19118;50.860;13.662;2023-07-20T09:54:13;96676.97;;;22.69;80.02
32747;BME280;19118;50.860;13.662;2023-07-20T09:59:17;96683.38;;;22.73;77.25
32747;BME280;19118;50.860;13.662;2023-07-20T10:04:18;96683.03;;;22.12;79.05
32747;BME280;19118;50.860;13.662;2023-07-20T10:09:22;96685.25;;;22.44;78.87
32747;BME280;19118;50.860;13.662;2023-07-20T10:14:25;96676.03;;;22.50;77.96
32747;BME280;19118;50.860;13.662;2023-07-20T10:19:43;96685.84;;;22.30;78.22
32747;BME280;19118;50.860;13.662;2023-07-20T10:24:46;96680.84;;;22.53;75.72
32747;BME280;19118;50.860;13.662;2023-07-20T10:29:48;96672.84;;;23.35;70.94
32747;BME280;19118;50.860;13.662;2023-07-20T10:34:52;96679.25;;;23.39;71.20
32747;BME280;19118;50.860;13.662;2023-07-20T10:39:55;96676.78;;;23.42;70.12
32747;BME280;19118;50.860;13.662;2023-07-20T10:44:56;96676.00;;;22.89;70.01
32747;BME280;19118;50.860;13.662;2023-07-20T10:49:58;96676.84;;;22.11;73.24
32747;BME280;19118;50.860;13.662;2023-07-20T10:55:10;96671.75;;;22.10;77.58
32747;BME280;19118;50.860;13.662;2023-07-20T11:00:14;96668.94;;;21.75;74.54
32747;BME280;19118;50.860;13.662;2023-07-20T11:05:44;96667.72;;;22.41;70.89
32747;BME280;19118;50.860;13.662;2023-07-20T11:10:44;96668.03;;;22.40;69.10
32747;BME280;19118;50.860;13.662;2023-07-20T11:16:08;96677.06;;;21.60;71.37
32747;BME280;19118;50.860;13.662;2023-07-20T11:21:08;96666.91;;;22.06;72.61
32747;BME280;19118;50.860;13.662;2023-07-20T11:26:09;96672.06;;;21.93;72.02
32747;BME280;19118;50.860;13.662;2023-07-20T11:31:13;96672.06;;;21.98;74.68
32747;BME280;19118;50.860;13.662;2023-07-20T11:36:14;96660.13;;;22.82;70.40
32747;BME280;19118;50.860;13.662;2023-07-20T11:41:14;96654.50;;;23.56;68.02
32747;BME280;19118;50.860;13.662;2023-07-20T11:46:15;96656.97;;;23.76;65.19
32747;BME280;19118;50.860;13.662;2023-07-20T11:51:16;96650.34;;;24.25;61.54
32747;BME280;19118;50.860;13.662;2023-07-20T11:56:17;96646.16;;;25.16;59.37
32747;BME280;19118;50.860;13.662;2023-07-20T12:01:18;96637.00;;;25.67;55.67
32747;BME280;19118;50.860;13.662;2023-07-20T12:06:18;96637.84;;;26.04;52.11
32747;BME280;19118;50.860;13.662;2023-07-20T12:11:35;96623.34;;;26.22;52.00
32747;BME280;19118;50.860;13.662;2023-07-20T12:16:36;96638.63;;;26.18;51.08
32747;BME280;19118;50.860;13.662;2023-07-20T12:21:40;96642.59;;;23.99;61.75
32747;BME280;19118;50.860;13.662;2023-07-20T12:26:42;96653.06;;;22.57;74.70
32747;BME280;19118;50.860;13.662;2023-07-20T12:31:43;96659.06;;;22.10;79.50
32747;BME280;19118;50.860;13.662;2023-07-20T12:36:43;96655.16;;;22.31;82.68
32747;BME280;19118;50.860;13.662;2023-07-20T12:41:44;96654.28;;;21.42;92.61
32747;BME280;19118;50.860;13.662;2023-07-20T12:46:44;96670.69;;;19.83;100.00
32747;BME280;19118;50.860;13.662;2023-07-20T12:51:44;96710.16;;;18.02;100.00
32747;BME280;19118;50.860;13.662;2023-07-20T12:56:45;96701.44;;;15.78;100.00
32747;BME280;19118;50.860;13.662;2023-07-20T13:01:45;96718.94;;;14.75;100.00
32747;BME280;19118;50.860;13.662;2023-07-20T13:06:46;96730.06;;;14.96;100.00
32747;BME280;19118;50.860;13.662;2023-07-20T13:11:46;96738.28;;;15.18;100.00
32747;BME280;19118;50.860;13.662;2023-07-20T13:16:47;96755.25;;;15.75;100.00
32747;BME280;19118;50.860;13.662;2023-07-20T13:21:47;96761.47;;;16.83;100.00
32747;BME280;19118;50.860;13.662;2023-07-20T13:26:48;96773.09;;;17.27;100.00
32747;BME280;19118;50.860;13.662;2023-07-20T13:31:48;96764.47;;;17.59;100.00
32747;BME280;19118;50.860;13.662;2023-07-20T13:36:49;96751.19;;;17.47;100.00
32747;BME280;19118;50.860;13.662;2023-07-20T13:41:50;96725.66;;;17.17;100.00
32747;BME280;19118;50.860;13.662;2023-07-20T13:46:50;96709.31;;;17.74;100.00
32747;BME280;19118;50.860;13.662;2023-07-20T13:51:51;96691.72;;;18.32;100.00
32747;BME280;19118;50.860;13.662;2023-07-20T13:56:52;96677.06;;;18.72;100.00
32747;BME280;19118;50.860;13.662;2023-07-20T14:01:52;96677.97;;;18.83;100.00
32747;BME280;19118;50.860;13.662;2023-07-20T14:06:53;96680.84;;;19.18;100.00
32747;BME280;19118;50.860;13.662;2023-07-20T14:11:54;96680.91;;;18.81;100.00
32747;BME280;19118;50.860;13.662;2023-07-20T14:16:54;96692.84;;;18.69;100.00
32747;BME280;19118;50.860;13.662;2023-07-20T14:21:56;96694.56;;;19.27;100.00
32747;BME280;19118;50.860;13.662;2023-07-20T14:26:59;96688.44;;;20.04;100.00
32747;BME280;19118;50.860;13.662;2023-07-20T14:32:00;96692.47;;;19.97;100.00
32747;BME280;19118;50.860;13.662;2023-07-20T14:37:01;96711.63;;;20.46;100.00
32747;BME280;19118;50.860;13.662;2023-07-20T14:42:02;96712.19;;;20.89;100.00
32747;BME280;19118;50.860;13.662;2023-07-20T14:47:04;96711.59;;;21.17;100.00
32747;BME280;19118;50.860;13.662;2023-07-20T14:52:05;96704.56;;;21.52;100.00
32747;BME280;19118;50.860;13.662;2023-07-20T14:57:05;96705.16;;;20.32;100.00
32747;BME280;19118;50.860;13.662;2023-07-20T15:02:13;96691.78;;;20.52;100.00
32747;BME280;19118;50.860;13.662;2023-07-20T15:07:13;96694.31;;;19.91;100.00
32747;BME280;19118;50.860;13.662;2023-07-20T15:12:14;96692.31;;;20.64;100.00
32747;BME280;19118;50.860;13.662;2023-07-20T15:17:14;96695.25;;;20.83;100.00
32747;BME280;19118;50.860;13.662;2023-07-20T15:22:15;96686.34;;;20.37;97.57
32747;BME280;19118;50.860;13.662;2023-07-20T15:27:15;96686.63;;;20.30;99.07
32747;BME280;19118;50.860;13.662;2023-07-20T15:32:17;96680.22;;;20.47;99.08
32747;BME280;19118;50.860;13.662;2023-07-20T15:37:18;96677.94;;;19.88;100.00
32747;BME280;19118;50.860;13.662;2023-07-20T15:42:18;96684.16;;;20.14;100.00
32747;BME280;19118;50.860;13.662;2023-07-20T15:47:18;96684.66;;;19.85;100.00
32747;BME280;19118;50.860;13.662;2023-07-20T15:52:19;96685.69;;;19.79;100.00
32747;BME280;19118;50.860;13.662;2023-07-20T15:57:19;96680.78;;;19.56;100.00
32747;BME280;19118;50.860;13.662;2023-07-20T16:02:19;96689.38;;;19.58;100.00
32747;BME280;19118;50.860;13.662;2023-07-20T16:07:20;96690.09;;;20.36;97.51
32747;BME280;19118;50.860;13.662;2023-07-20T16:12:20;96695.47;;;20.31;95.44
32747;BME280;19118;50.860;13.662;2023-07-20T16:17:25;96688.53;;;20.60;94.18
32747;BME280;19118;50.860;13.662;2023-07-20T16:22:26;96690.66;;;21.89;86.18
32747;BME280;19118;50.860;13.662;2023-07-20T16:27:26;96690.28;;;23.90;75.32
32747;BME280;19118;50.860;13.662;2023-07-20T16:32:27;96682.25;;;23.85;68.80
32747;BME280;19118;50.860;13.662;2023-07-20T16:37:27;96682.31;;;23.80;68.91
32747;BME280;19118;50.860;13.662;2023-07-20T16:42:27;96694.69;;;21.92;71.41
32747;BME280;19118;50.860;13.662;2023-07-20T16:47:28;96690.03;;;22.13;73.93
32747;BME280;19118;50.860;13.662;2023-07-20T16:52:28;96668.47;;;23.63;70.81
32747;BME280;19118;50.860;13.662;2023-07-20T16:57:28;96683.75;;;25.45;61.69
32747;BME280;19118;50.860;13.662;2023-07-20T17:02:29;96677.38;;;24.25;62.63
32747;BME280;19118;50.860;13.662;2023-07-20T17:07:29;96670.19;;;25.59;59.81
32747;BME280;19118;50.860;13.662;2023-07-20T17:12:29;96664.41;;;26.29;55.43
32747;BME280;19118;50.860;13.662;2023-07-20T17:17:30;96665.91;;;26.58;52.87
32747;BME280;19118;50.860;13.662;2023-07-20T17:22:30;96664.78;;;25.87;52.10
32747;BME280;19118;50.860;13.662;2023-07-20T17:27:30;96670.81;;;24.50;56.76
32747;BME280;19118;50.860;13.662;2023-07-20T17:32:31;96668.47;;;24.05;58.08
32747;BME280;19118;50.860;13.662;2023-07-20T17:37:31;96661.50;;;23.99;56.21
32747;BME280;19118;50.860;13.662;2023-07-20T17:42:32;96667.25;;;22.68;56.81
32747;BME280;19118;50.860;13.662;2023-07-20T17:47:32;96665.06;;;21.92;61.72
32747;BME280;19118;50.860;13.662;2023-07-20T17:52:32;96667.00;;;22.30;61.92
32747;BME280;19118;50.860;13.662;2023-07-20T17:57:33;96667.19;;;21.95;62.75
32747;BME280;19118;50.860;13.662;2023-07-20T18:02:33;96676.09;;;21.26;68.50
32747;BME280;19118;50.860;13.662;2023-07-20T18:07:34;96669.75;;;20.66;68.59
32747;BME280;19118;50.860;13.662;2023-07-20T18:12:34;96673.41;;;19.98;75.89
32747;BME280;19118;50.860;13.662;2023-07-20T18:17:35;96669.69;;;19.42;81.89
32747;BME280;19118;50.860;13.662;2023-07-20T18:22:37;96650.56;;;19.23;86.33
32747;BME280;19118;50.860;13.662;2023-07-20T18:27:37;96657.88;;;18.85;90.51
32747;BME280;19118;50.860;13.662;2023-07-20T18:32:38;96665.75;;;18.65;95.43
32747;BME280;19118;50.860;13.662;2023-07-20T18:37:38;96659.75;;;18.21;100.00
32747;BME280;19118;50.860;13.662;2023-07-20T18:42:39;96657.13;;;17.99;100.00
32747;BME280;19118;50.860;13.662;2023-07-20T18:47:39;96656.13;;;17.56;100.00
32747;BME280;19118;50.860;13.662;2023-07-20T18:52:40;96663.50;;;17.05;100.00
32747;BME280;19118;50.860;13.662;2023-07-20T18:57:41;96664.91;;;16.57;100.00
32747;BME280;19118;50.860;13.662;2023-07-20T19:02:43;96649.78;;;16.29;100.00
32747;BME280;19118;50.860;13.662;2023-07-20T19:07:43;96663.63;;;16.10;100.00
32747;BME280;19118;50.860;13.662;2023-07-20T19:12:43;96655.25;;;15.89;100.00
32747;BME280;19118;50.860;13.662;2023-07-20T19:17:44;96670.63;;;15.59;100.00
32747;BME280;19118;50.860;13.662;2023-07-20T19:22:44;96677.31;;;15.33;100.00
32747;BME280;19118;50.860;13.662;2023-07-20T19:27:45;96675.84;;;15.02;100.00
32747;BME280;19118;50.860;13.662;2023-07-20T19:32:45;96672.41;;;14.78;100.00
32747;BME280;19118;50.860;13.662;2023-07-20T19:37:46;96671.25;;;14.62;100.00
32747;BME280;19118;50.860;13.662;2023-07-20T19:42:46;96680.13;;;14.56;100.00
32747;BME280;19118;50.860;13.662;2023-07-20T19:47:49;96682.28;;;14.36;100.00
32747;BME280;19118;50.860;13.662;2023-07-20T19:52:50;96684.66;;;14.14;100.00
32747;BME280;19118;50.860;13.662;2023-07-20T19:57:51;96670.09;;;14.05;100.00
32747;BME280;19118;50.860;13.662;2023-07-20T20:02:52;96679.03;;;13.92;100.00
32747;BME280;19118;50.860;13.662;2023-07-20T20:07:53;96684.44;;;13.74;100.00
32747;BME280;19118;50.860;13.662;2023-07-20T20:12:53;96686.94;;;13.68;100.00
32747;BME280;19118;50.860;13.662;2023-07-20T20:17:54;96695.81;;;13.62;100.00
32747;BME280;19118;50.860;13.662;2023-07-20T20:22:55;96695.97;;;13.49;100.00
32747;BME280;19118;50.860;13.662;2023-07-20T20:27:55;96701.88;;;13.51;100.00
32747;BME280;19118;50.860;13.662;2023-07-20T20:32:55;96700.25;;;13.50;100.00
32747;BME280;19118;50.860;13.662;2023-07-20T20:37:56;96701.31;;;13.49;100.00
32747;BME280;19118;50.860;13.662;2023-07-20T20:42:56;96711.31;;;13.47;100.00
32747;BME280;19118;50.860;13.662;2023-07-20T20:47:57;96707.78;;;13.35;100.00
32747;BME280;19118;50.860;13.662;2023-07-20T20:52:59;96701.34;;;13.24;100.00
32747;BME280;19118;50.860;13.662;2023-07-20T20:57:59;96695.81;;;13.07;100.00
32747;BME280;19118;50.860;13.662;2023-07-20T21:03:00;96699.25;;;12.90;100.00
32747;BME280;19118;50.860;13.662;2023-07-20T21:08:01;96691.63;;;12.75;100.00
32747;BME280;19118;50.860;13.662;2023-07-20T21:13:04;96699.88;;;12.67;100.00
32747;BME280;19118;50.860;13.662;2023-07-20T21:18:05;96700.97;;;12.59;100.00
32747;BME280;19118;50.860;13.662;2023-07-20T21:23:05;96699.97;;;12.53;100.00
32747;BME280;19118;50.860;13.662;2023-07-20T21:28:06;96702.50;;;12.48;100.00
32747;BME280;19118;50.860;13.662;2023-07-20T21:33:06;96706.22;;;12.41;100.00
32747;BME280;19118;50.860;13.662;2023-07-20T21:38:07;96705.41;;;12.40;100.00
32747;BME280;19118;50.860;13.662;2023-07-20T21:43:08;96707.19;;;12.46;100.00
32747;BME280;19118;50.860;13.662;2023-07-20T21:48:11;96713.69;;;12.50;100.00
32747;BME280;19118;50.860;13.662;2023-07-20T21:53:12;96706.50;;;12.58;100.00
32747;BME280;19118;50.860;13.662;2023-07-20T21:58:12;96705.63;;;12.64;100.00
32747;BME280;19118;50.860;13.662;2023-07-20T22:03:14;96707.50;;;12.81;100.00
32747;BME280;19118;50.860;13.662;2023-07-20T22:08:15;96705.81;;;12.87;100.00
32747;BME280;19118;50.860;13.662;2023-07-20T22:13:16;96706.38;;;12.89;100.00
32747;BME280;19118;50.860;13.662;2023-07-20T22:18:16;96694.91;;;12.95;100.00
32747;BME280;19118;50.860;13.662;2023-07-20T22:23:16;96706.06;;;13.04;100.00
32747;BME280;19118;50.860;13.662;2023-07-20T22:28:18;96696.25;;;13.04;100.00
32747;BME280;19118;50.860;13.662;2023-07-20T22:33:19;96694.53;;;13.10;100.00
32747;BME280;19118;50.860;13.662;2023-07-20T22:38:20;96685.50;;;13.18;100.00
32747;BME280;19118;50.860;13.662;2023-07-20T22:43:21;96683.44;;;13.20;100.00
32747;BME280;19118;50.860;13.662;2023-07-20T22:48:25;96683.47;;;13.13;100.00
32747;BME280;19118;50.860;13.662;2023-07-20T22:53:27;96676.34;;;12.95;100.00
32747;BME280;19118;50.860;13.662;2023-07-20T22:58:28;96681.66;;;12.95;100.00
32747;BME280;19118;50.860;13.662;2023-07-20T23:03:29;96678.09;;;13.01;100.00
32747;BME280;19118;50.860;13.662;2023-07-20T23:08:29;96675.31;;;13.15;100.00
32747;BME280;19118;50.860;13.662;2023-07-20T23:13:30;96674.88;;;13.18;100.00
32747;BME280;19118;50.860;13.662;2023-07-20T23:18:32;96665.44;;;13.22;100.00
32747;BME280;19118;50.860;13.662;2023-07-20T23:23:35;96665.28;;;13.35;100.00
32747;BME280;19118;50.860;13.662;2023-07-20T23:28:37;96664.31;;;13.48;100.00
32747;BME280;19118;50.860;13.662;2023-07-20T23:33:38;96670.13;;;13.56;100.00
32747;BME280;19118;50.860;13.662;2023-07-20T23:38:39;96664.22;;;13.54;100.00
32747;BME280;19118;50.860;13.662;2023-07-20T23:43:41;96663.34;;;13.60;100.00
32747;BME280;19118;50.860;13.662;2023-07-20T23:48:42;96655.28;;;13.67;100.00
32747;BME280;19118;50.860;13.662;2023-07-20T23:53:42;96651.81;;;13.66;100.00
32747;BME280;19118;50.860;13.662;2023-07-20T23:58:45;96650.06;;;13.60;100.00
